createdAt,value
2023-03-29T00:02:19.696Z,100944.17
2023-03-29T00:07:14.340Z,100941.09
2023-03-29T00:12:07.469Z,100943.40
2023-03-29T00:17:00.335Z,100945.52
2023-03-29T00:21:53.175Z,100952.52
2023-03-29T00:26:46.575Z,100953.06
2023-03-29T00:31:39.460Z,100943.28
2023-03-29T00:36:32.256Z,100940.73
2023-03-29T00:41:25.046Z,100938.96
2023-03-29T00:46:18.109Z,100945.59
2023-03-29T00:51:14.446Z,100940.89
2023-03-29T00:56:12.097Z,100952.08
2023-03-29T01:01:11.618Z,100949.05
2023-03-29T01:06:08.823Z,100951.30
2023-03-29T01:11:18.463Z,100953.90
2023-03-29T01:16:14.152Z,100955.69
2023-03-29T01:21:10.458Z,100954.52
2023-03-29T01:26:12.598Z,100951.70
2023-03-29T01:31:22.827Z,100952.14
2023-03-29T01:36:28.489Z,100952.13
2023-03-29T01:41:22.086Z,100954.00
2023-03-29T01:46:32.300Z,100954.95
2023-03-29T01:51:39.835Z,100955.77
2023-03-29T01:56:38.273Z,100961.27
2023-03-29T02:01:38.587Z,100967.31
2023-03-29T02:06:33.462Z,100966.05
2023-03-29T02:11:29.484Z,100967.31
2023-03-29T02:16:22.619Z,100967.61
2023-03-29T02:21:42.899Z,100968.77
2023-03-29T02:26:36.417Z,100971.91
2023-03-29T02:31:38.088Z,100969.05
2023-03-29T02:36:52.086Z,100970.73
2023-03-29T02:41:50.119Z,100966.78
2023-03-29T02:46:44.006Z,100970.25
2023-03-29T02:51:39.669Z,100975.45
2023-03-29T02:56:43.525Z,100974.63
2023-03-29T03:01:36.907Z,100973.46
2023-03-29T03:06:30.058Z,100980.36
2023-03-29T03:11:23.982Z,100977.55
2023-03-29T03:16:17.245Z,100979.19
2023-03-29T03:21:10.611Z,100979.27
2023-03-29T03:26:03.378Z,100980.53
2023-03-29T03:30:56.753Z,100984.89
2023-03-29T03:36:11.168Z,100986.10
2023-03-29T03:41:05.741Z,100983.30
2023-03-29T03:45:59.616Z,100984.85
2023-03-29T03:50:58.506Z,100985.52
2023-03-29T03:55:57.124Z,100991.21
2023-03-29T04:00:55.033Z,100992.94
2023-03-29T04:06:04.281Z,100999.27
2023-03-29T04:11:10.607Z,100999.36
2023-03-29T04:16:08.186Z,101003.45
2023-03-29T04:21:01.441Z,101014.41
2023-03-29T04:25:58.401Z,101018.53
2023-03-29T04:31:14.520Z,101024.64
2023-03-29T04:36:17.032Z,101026.52
2023-03-29T04:41:10.288Z,101026.34
2023-03-29T04:46:40.449Z,101027.05
2023-03-29T04:52:00.983Z,101022.80
2023-03-29T04:56:56.866Z,101024.64
2023-03-29T05:02:10.303Z,101024.16
2023-03-29T05:07:04.620Z,101026.02
2023-03-29T05:11:57.711Z,101027.42
2023-03-29T05:16:51.135Z,101028.33
2023-03-29T05:21:45.635Z,101027.06
2023-03-29T05:26:41.216Z,101026.05
2023-03-29T05:31:34.252Z,101027.50
2023-03-29T05:36:28.510Z,101026.94
2023-03-29T05:41:21.517Z,101035.73
2023-03-29T05:46:42.935Z,101035.13
2023-03-29T05:51:36.470Z,101037.38
2023-03-29T05:56:29.359Z,101040.89
2023-03-29T06:01:22.720Z,101042.26
2023-03-29T06:06:27.601Z,101047.43
2023-03-29T06:11:22.417Z,101036.09
2023-03-29T06:16:34.004Z,101039.48
2023-03-29T06:21:28.570Z,101036.16
2023-03-29T06:26:25.010Z,101034.61
2023-03-29T06:31:19.903Z,101041.69
2023-03-29T06:36:16.437Z,101039.48
2023-03-29T06:41:23.782Z,101042.70
2023-03-29T06:46:19.774Z,101046.68
2023-03-29T06:51:23.621Z,101051.84
2023-03-29T06:56:17.728Z,101047.33
2023-03-29T07:01:21.847Z,101045.55
2023-03-29T07:06:23.612Z,101045.92
2023-03-29T07:11:18.851Z,101041.05
2023-03-29T07:16:20.887Z,101043.84
2023-03-29T07:21:30.313Z,101040.52
2023-03-29T07:26:28.914Z,101039.87
2023-03-29T07:31:28.633Z,101025.32
2023-03-29T07:36:28.925Z,101012.79
2023-03-29T07:41:22.642Z,101006.66
2023-03-29T07:46:26.477Z,100998.58
2023-03-29T07:51:19.554Z,100998.62
2023-03-29T07:56:18.989Z,100993.45
2023-03-29T08:01:19.932Z,100999.58
2023-03-29T08:06:36.749Z,101002.69
2023-03-29T08:11:29.801Z,100997.66
2023-03-29T08:16:26.748Z,100999.27
2023-03-29T08:21:31.998Z,100994.48
2023-03-29T08:26:25.180Z,100987.84
2023-03-29T08:31:18.360Z,100988.16
2023-03-29T08:36:12.051Z,100991.92
2023-03-29T08:41:41.312Z,100989.77
2023-03-29T08:46:37.431Z,100988.81
2023-03-29T08:51:46.593Z,100981.23
2023-03-29T08:56:42.208Z,100974.44
2023-03-29T09:01:50.334Z,100976.61
2023-03-29T09:06:43.326Z,100978.16
2023-03-29T09:12:14.096Z,100980.59
2023-03-29T09:17:32.301Z,100976.02
2023-03-29T09:22:44.882Z,100976.56
2023-03-29T09:27:50.160Z,100975.75
2023-03-29T09:32:54.379Z,100963.23
2023-03-29T09:37:54.540Z,100960.28
2023-03-29T09:42:51.166Z,100956.55
2023-03-29T09:48:16.429Z,100956.83
2023-03-29T09:53:16.391Z,100949.17
2023-03-29T09:58:18.863Z,100945.19
2023-03-29T10:03:21.263Z,100939.56
2023-03-29T10:08:46.401Z,100932.90
2023-03-29T10:13:49.351Z,100925.28
2023-03-29T10:18:44.264Z,100919.95
2023-03-29T10:23:39.206Z,100927.55
2023-03-29T10:28:34.131Z,100917.16
2023-03-29T10:33:32.595Z,100917.61
2023-03-29T10:38:29.569Z,100915.28
2023-03-29T10:43:25.733Z,100912.55
2023-03-29T10:48:19.516Z,100906.19
2023-03-29T10:53:22.066Z,100906.42
2023-03-29T10:58:44.721Z,100908.46
2023-03-29T11:03:55.522Z,100899.17
2023-03-29T11:09:01.025Z,100897.74
2023-03-29T11:14:21.249Z,100901.30
2023-03-29T11:19:28.401Z,100898.15
2023-03-29T11:24:43.423Z,100897.90
2023-03-29T11:30:06.517Z,100894.30
2023-03-29T11:34:59.667Z,100888.24
2023-03-29T11:39:53.103Z,100877.95
2023-03-29T11:44:49.560Z,100874.40
2023-03-29T11:49:45.114Z,100878.90
2023-03-29T11:54:44.941Z,100877.53
2023-03-29T11:59:44.845Z,100880.33
2023-03-29T12:04:46.067Z,100868.06
2023-03-29T12:09:54.700Z,100865.60
2023-03-29T12:15:00.173Z,100871.38
2023-03-29T12:20:08.184Z,100864.95
2023-03-29T12:25:07.109Z,100860.98
2023-03-29T12:30:17.442Z,100853.52
2023-03-29T12:35:41.000Z,100850.54
2023-03-29T12:41:19.184Z,100848.73
2023-03-29T12:46:34.791Z,100845.95
2023-03-29T12:51:37.011Z,100841.03
2023-03-29T12:56:53.246Z,100840.63
2023-03-29T13:02:04.395Z,100839.89
2023-03-29T13:07:04.156Z,100836.00
2023-03-29T13:12:14.623Z,100837.94
2023-03-29T13:17:44.988Z,100833.71
2023-03-29T13:22:49.145Z,100832.77
2023-03-29T13:28:06.265Z,100830.67
2023-03-29T13:33:38.338Z,100826.19
2023-03-29T13:38:33.306Z,100822.47
2023-03-29T13:43:53.882Z,100819.23
2023-03-29T13:49:21.722Z,100814.36
2023-03-29T13:54:47.299Z,100805.62
2023-03-29T13:59:53.494Z,100808.59
2023-03-29T14:04:50.963Z,100801.77
2023-03-29T14:09:46.226Z,100800.95
2023-03-29T14:14:57.817Z,100799.76
2023-03-29T14:19:52.208Z,100795.24
2023-03-29T14:24:52.548Z,100783.15
2023-03-29T14:29:51.326Z,100780.14
2023-03-29T14:34:45.496Z,100774.13
2023-03-29T14:39:40.045Z,100772.41
2023-03-29T14:44:35.038Z,100772.46
2023-03-29T14:49:28.838Z,100771.69
2023-03-29T14:54:31.965Z,100772.20
2023-03-29T14:59:36.462Z,100772.88
2023-03-29T15:04:39.101Z,100768.33
2023-03-29T15:09:35.543Z,100772.27
2023-03-29T15:14:35.536Z,100771.52
2023-03-29T15:19:28.862Z,100764.92
2023-03-29T15:24:33.580Z,100766.19
2023-03-29T15:29:35.982Z,100765.98
2023-03-29T15:34:34.614Z,100762.53
2023-03-29T15:39:29.435Z,100761.11
2023-03-29T15:44:27.884Z,100760.23
2023-03-29T15:49:20.875Z,100760.91
2023-03-29T15:54:14.137Z,100759.98
2023-03-29T15:59:07.051Z,100759.29
2023-03-29T16:04:03.557Z,100759.32
2023-03-29T16:08:57.432Z,100753.12
2023-03-29T16:13:50.742Z,100750.09
2023-03-29T16:18:43.659Z,100748.14
2023-03-29T16:23:36.807Z,100746.20
2023-03-29T16:28:29.621Z,100741.61
2023-03-29T16:33:23.013Z,100742.25
2023-03-29T16:38:15.967Z,100737.64
2023-03-29T16:43:08.804Z,100743.14
2023-03-29T16:48:01.769Z,100739.15
2023-03-29T16:52:54.591Z,100741.23
2023-03-29T16:57:51.038Z,100736.52
2023-03-29T17:02:45.108Z,100729.36
2023-03-29T17:07:39.291Z,100726.01
2023-03-29T17:12:32.843Z,100724.54
2023-03-29T17:17:26.859Z,100731.81
2023-03-29T17:22:19.681Z,100734.23
2023-03-29T17:27:12.482Z,100737.20
2023-03-29T17:32:05.339Z,100737.54
2023-03-29T17:36:58.625Z,100735.30
2023-03-29T17:41:51.796Z,100731.86
2023-03-29T17:46:44.598Z,100738.77
2023-03-29T17:51:37.450Z,100745.96
2023-03-29T17:56:30.614Z,100743.58
2023-03-29T18:01:23.516Z,100745.32
2023-03-29T18:06:20.376Z,100751.14
2023-03-29T18:11:18.962Z,100757.75
2023-03-29T18:16:12.368Z,100759.67
2023-03-29T18:21:07.049Z,100757.45
2023-03-29T18:26:04.573Z,100759.70
2023-03-29T18:30:58.371Z,100757.27
2023-03-29T18:35:52.130Z,100749.77
2023-03-29T18:40:44.962Z,100747.95
2023-03-29T18:45:37.798Z,100746.05
2023-03-29T18:50:30.597Z,100747.00
2023-03-29T18:55:23.375Z,100745.48
2023-03-29T19:00:16.442Z,100743.20
2023-03-29T19:05:09.891Z,100741.83
2023-03-29T19:10:03.676Z,100748.92
2023-03-29T19:14:56.972Z,100755.30
2023-03-29T19:19:49.747Z,100755.31
2023-03-29T19:24:42.534Z,100747.96
2023-03-29T19:29:35.458Z,100742.82
2023-03-29T19:34:29.727Z,100739.80
2023-03-29T19:39:25.993Z,100738.16
2023-03-29T19:44:20.153Z,100738.39
2023-03-29T19:49:13.991Z,100744.79
2023-03-29T19:54:07.167Z,100737.80
2023-03-29T19:59:00.906Z,100734.55
2023-03-29T20:03:55.379Z,100726.47
2023-03-29T20:08:48.562Z,100726.55
2023-03-29T20:13:46.155Z,100717.27
2023-03-29T20:18:41.953Z,100712.80
2023-03-29T20:23:35.334Z,100711.16
2023-03-29T20:28:28.172Z,100707.08
2023-03-29T20:33:23.848Z,100697.02
2023-03-29T20:38:17.019Z,100694.38
2023-03-29T20:43:13.708Z,100689.31
2023-03-29T20:48:07.372Z,100683.14
2023-03-29T20:53:03.697Z,100673.88
2023-03-29T20:57:56.871Z,100671.52
2023-03-29T21:02:49.763Z,100673.41
2023-03-29T21:07:44.928Z,100672.81
2023-03-29T21:12:38.866Z,100675.22
2023-03-29T21:17:32.647Z,100668.81
2023-03-29T21:22:26.458Z,100661.17
2023-03-29T21:27:19.333Z,100658.70
2023-03-29T21:32:12.109Z,100664.10
2023-03-29T21:37:05.060Z,100662.45
2023-03-29T21:41:59.309Z,100654.67
2023-03-29T21:46:52.171Z,100656.19
2023-03-29T21:51:44.974Z,100660.23
2023-03-29T21:56:38.225Z,100661.49
2023-03-29T22:01:31.561Z,100652.96
2023-03-29T22:06:26.014Z,100647.21
2023-03-29T22:11:18.855Z,100637.34
2023-03-29T22:16:17.697Z,100632.13
2023-03-29T22:21:19.836Z,100627.90
2023-03-29T22:26:17.511Z,100621.93
2023-03-29T22:31:18.910Z,100621.36
2023-03-29T22:36:27.033Z,100620.59
2023-03-29T22:41:22.780Z,100618.56
2023-03-29T22:46:15.843Z,100613.20
2023-03-29T22:51:08.817Z,100605.85
2023-03-29T22:56:01.639Z,100604.17
2023-03-29T23:00:54.488Z,100600.67
2023-03-29T23:05:58.467Z,100595.37
2023-03-29T23:10:51.672Z,100596.56
2023-03-29T23:15:47.518Z,100595.71
2023-03-29T23:20:44.815Z,100593.38
2023-03-29T23:25:37.792Z,100586.05
2023-03-29T23:30:31.109Z,100571.42
2023-03-29T23:35:23.954Z,100563.61
2023-03-29T23:40:16.791Z,100561.08
2023-03-29T23:45:12.791Z,100568.95
2023-03-29T23:50:08.572Z,100573.91
2023-03-29T23:55:01.829Z,100569.05
